Atterbury, Illinois
Current Conditions -  °F | °C
As of 12:52 AM on Thursday 27 Nov 2014 (Local Time) from KSPI Reporting Station
Broken Clouds Broken Clouds  
Wind Chill: 18°   Ceiling: 1800
Heat Index: 25°   Visibility: 7mi
Dew Point: 23°   Wind: 6mph
Humidity: 92%   Direction: 330°NNW
Pressure: 30.26"   Gusts: NA
Location:  40.0452°N, 89.8548°W
Report Text: KSPI 270652Z AUTO 33005KT 7SM BKN018 M04/M05 A3026 RMK AO2 SLP255 T10391050
Loading
Personal Weather Stations






























Interactive Weather Map New forecast layout! Learn more

10-Day Weather Forecast

Advertisements
Track Severe Weather on mobile